createdAt,value
2019-02-06T00:02:11.984Z,0.30
2019-02-06T00:04:39.495Z,0.40
2019-02-06T00:07:07.083Z,0.30
2019-02-06T00:09:34.613Z,0.30
2019-02-06T00:12:02.201Z,0.30
2019-02-06T00:14:29.724Z,0.30
2019-02-06T00:16:57.678Z,0.50
2019-02-06T00:19:25.277Z,0.30
2019-02-06T00:21:52.811Z,0.30
2019-02-06T00:24:20.407Z,0.40
2019-02-06T00:26:47.974Z,0.40
2019-02-06T00:29:15.783Z,0.50
2019-02-06T00:31:43.211Z,0.50
2019-02-06T00:34:10.601Z,0.40
2019-02-06T00:36:38.100Z,0.40
2019-02-06T00:39:08.311Z,0.50
2019-02-06T00:41:35.851Z,0.50
2019-02-06T00:44:03.940Z,0.60
2019-02-06T00:46:32.171Z,0.60
2019-02-06T00:49:00.390Z,0.60
2019-02-06T00:51:28.213Z,0.60
2019-02-06T00:53:55.789Z,0.60
2019-02-06T00:56:24.167Z,0.70
2019-02-06T00:58:51.606Z,0.70
2019-02-06T01:01:19.097Z,0.70
2019-02-06T01:03:46.898Z,0.60
2019-02-06T01:06:14.303Z,0.60
2019-02-06T01:08:42.021Z,0.70
2019-02-06T01:11:09.483Z,0.70
2019-02-06T01:13:36.905Z,0.70
2019-02-06T01:16:04.725Z,0.60
2019-02-06T01:18:32.490Z,0.60
2019-02-06T01:20:59.938Z,0.70
2019-02-06T01:23:27.699Z,0.70
2019-02-06T01:25:55.345Z,0.70
2019-02-06T01:28:23.060Z,0.70
2019-02-06T01:30:57.563Z,0.70
2019-02-06T01:33:24.986Z,0.70
2019-02-06T01:35:52.520Z,0.70
2019-02-06T01:38:20.826Z,0.70
2019-02-06T01:40:48.260Z,0.60
2019-02-06T01:43:16.206Z,0.70
2019-02-06T01:45:44.071Z,0.60
2019-02-06T01:48:11.633Z,0.60
2019-02-06T01:50:40.267Z,0.60
2019-02-06T01:53:07.737Z,0.60
2019-02-06T01:55:35.184Z,0.70
2019-02-06T01:58:02.634Z,0.70
2019-02-06T02:00:30.121Z,0.70
2019-02-06T02:02:58.059Z,0.80
2019-02-06T02:05:25.518Z,0.80
2019-02-06T02:07:53.138Z,0.80
2019-02-06T02:10:21.246Z,0.90
2019-02-06T02:12:49.175Z,0.90
2019-02-06T02:15:16.985Z,1.00
2019-02-06T02:17:44.388Z,1.00
2019-02-06T02:20:14.613Z,0.90
2019-02-06T02:22:42.417Z,0.80
2019-02-06T02:25:09.890Z,0.80
2019-02-06T02:27:37.364Z,0.90
2019-02-06T02:30:07.543Z,0.90
2019-02-06T02:32:35.111Z,0.90
2019-02-06T02:35:03.611Z,1.00
2019-02-06T02:37:31.026Z,1.00
2019-02-06T02:39:58.599Z,0.90
2019-02-06T02:42:25.994Z,0.90
2019-02-06T02:44:53.395Z,0.90
2019-02-06T02:47:22.398Z,0.80
2019-02-06T02:49:49.803Z,0.80
2019-02-06T02:52:17.265Z,0.70
2019-02-06T02:54:44.669Z,0.60
2019-02-06T02:57:12.134Z,0.60
2019-02-06T02:59:39.558Z,0.50
2019-02-06T03:02:32.371Z,0.60
2019-02-06T03:05:05.066Z,0.60
2019-02-06T03:07:32.478Z,0.50
2019-02-06T03:10:00.015Z,0.60
2019-02-06T03:12:27.498Z,0.60
2019-02-06T03:14:55.399Z,0.60
2019-02-06T03:17:22.816Z,0.70
2019-02-06T03:19:50.246Z,0.70
2019-02-06T03:22:17.841Z,0.70
2019-02-06T03:24:45.347Z,0.60
2019-02-06T03:27:12.734Z,0.60
2019-02-06T03:29:40.130Z,0.60
2019-02-06T03:32:07.533Z,0.60
2019-02-06T03:34:35.040Z,0.60
2019-02-06T03:37:02.434Z,0.50
2019-02-06T03:39:30.534Z,0.50
2019-02-06T03:41:57.946Z,0.50
2019-02-06T03:44:25.439Z,0.50
2019-02-06T03:46:53.032Z,0.60
2019-02-06T03:49:20.551Z,0.70
2019-02-06T03:51:48.086Z,0.70
2019-02-06T03:54:15.587Z,0.70
2019-02-06T03:56:43.061Z,0.70
2019-02-06T03:59:10.580Z,0.90
2019-02-06T04:01:38.002Z,0.90
2019-02-06T04:04:05.430Z,0.90
2019-02-06T04:06:32.983Z,1.00
2019-02-06T04:09:00.469Z,1.00
2019-02-06T04:11:27.916Z,1.00
2019-02-06T04:13:55.267Z,0.80
2019-02-06T04:16:23.317Z,0.70
2019-02-06T04:18:50.891Z,0.60
2019-02-06T04:21:18.347Z,0.60
2019-02-06T04:23:45.707Z,0.50
2019-02-06T04:26:13.143Z,0.40
2019-02-06T04:28:40.559Z,0.40
2019-02-06T04:31:08.073Z,0.50
2019-02-06T04:33:36.039Z,0.60
2019-02-06T04:36:03.720Z,0.70
2019-02-06T04:38:31.120Z,0.60
2019-02-06T04:40:58.519Z,0.60
2019-02-06T04:43:26.264Z,0.70
2019-02-06T04:45:53.726Z,0.60
2019-02-06T04:48:21.148Z,0.60
2019-02-06T04:50:48.957Z,0.60
2019-02-06T04:53:16.683Z,0.70
2019-02-06T04:55:44.215Z,0.70
2019-02-06T04:58:11.611Z,0.70
2019-02-06T05:00:39.043Z,0.70
2019-02-06T05:03:06.500Z,0.80
2019-02-06T05:05:33.984Z,0.90
2019-02-06T05:08:01.454Z,0.90
2019-02-06T05:10:29.243Z,1.00
2019-02-06T05:12:56.764Z,1.10
2019-02-06T05:15:24.148Z,1.20
2019-02-06T05:17:51.613Z,1.30
2019-02-06T05:20:38.970Z,1.40
2019-02-06T05:23:07.438Z,1.50
2019-02-06T05:25:35.406Z,1.60
2019-02-06T05:28:02.852Z,1.70
2019-02-06T05:30:30.311Z,1.80
2019-02-06T05:32:57.734Z,1.90
2019-02-06T05:35:25.128Z,2.00
2019-02-06T05:37:52.751Z,2.00
2019-02-06T05:40:20.324Z,2.10
2019-02-06T05:42:47.869Z,2.10
2019-02-06T05:45:16.704Z,2.20
2019-02-06T05:47:44.262Z,2.20
2019-02-06T05:50:12.657Z,2.20
2019-02-06T05:52:40.123Z,2.20
2019-02-06T05:55:07.729Z,2.20
2019-02-06T05:57:35.276Z,2.20
2019-02-06T06:00:06.242Z,2.30
2019-02-06T06:02:33.848Z,2.30
2019-02-06T06:05:01.370Z,2.30
2019-02-06T06:07:28.855Z,2.30
2019-02-06T06:09:56.265Z,2.40
2019-02-06T06:12:23.758Z,2.40
2019-02-06T06:14:51.278Z,2.40
2019-02-06T06:17:20.484Z,2.50
2019-02-06T06:19:47.877Z,2.50
2019-02-06T06:22:16.080Z,2.60
2019-02-06T06:24:43.663Z,2.60
2019-02-06T06:27:12.731Z,2.70
2019-02-06T06:29:40.308Z,2.80
2019-02-06T06:32:07.775Z,2.80
2019-02-06T06:34:35.223Z,2.90
2019-02-06T06:37:02.985Z,2.90
2019-02-06T06:39:30.376Z,2.90
2019-02-06T06:41:57.831Z,3.00
2019-02-06T06:44:25.270Z,3.00
2019-02-06T06:46:52.946Z,3.00
2019-02-06T06:49:22.351Z,3.00
2019-02-06T06:51:49.784Z,3.00
2019-02-06T06:54:19.164Z,3.00
2019-02-06T06:56:46.689Z,3.00
2019-02-06T06:59:14.091Z,3.00
2019-02-06T07:01:41.501Z,3.00
2019-02-06T07:04:09.015Z,3.00
2019-02-06T07:06:36.467Z,3.00
2019-02-06T07:09:07.615Z,3.00
2019-02-06T07:11:35.151Z,3.00
2019-02-06T07:14:02.706Z,3.00
2019-02-06T07:16:31.202Z,3.10
2019-02-06T07:18:58.653Z,3.10
2019-02-06T07:21:27.434Z,3.20
2019-02-06T07:23:54.959Z,3.20
2019-02-06T07:26:22.364Z,3.20
2019-02-06T07:28:49.896Z,3.30
2019-02-06T07:31:19.541Z,3.30
2019-02-06T07:33:47.107Z,3.30
2019-02-06T07:36:14.655Z,3.30
2019-02-06T07:38:42.171Z,3.30
2019-02-06T07:41:10.066Z,3.40
2019-02-06T07:43:37.663Z,3.40
2019-02-06T07:46:05.072Z,3.50
2019-02-06T07:48:34.597Z,3.60
2019-02-06T07:51:02.941Z,3.60
2019-02-06T07:53:30.424Z,3.70
2019-02-06T07:55:58.227Z,3.70
2019-02-06T07:58:27.743Z,3.70
2019-02-06T08:00:55.437Z,3.90
2019-02-06T08:03:22.839Z,3.80
2019-02-06T08:05:50.271Z,3.90
2019-02-06T08:08:17.695Z,3.90
2019-02-06T08:10:45.238Z,3.90
2019-02-06T08:13:13.528Z,4.00
2019-02-06T08:15:41.058Z,4.10
2019-02-06T08:18:08.514Z,4.10
2019-02-06T08:20:36.507Z,4.20
2019-02-06T08:23:04.273Z,4.30
2019-02-06T08:25:32.365Z,4.40
2019-02-06T08:28:00.023Z,4.50
2019-02-06T08:30:30.235Z,4.60
2019-02-06T08:32:57.968Z,4.70
2019-02-06T08:35:25.499Z,4.70
2019-02-06T08:37:53.582Z,4.80
2019-02-06T08:40:22.243Z,4.80
2019-02-06T08:42:49.667Z,5.00
2019-02-06T08:45:17.759Z,5.00
2019-02-06T08:47:45.480Z,5.10
2019-02-06T08:50:13.454Z,5.30
2019-02-06T08:52:40.963Z,5.40
2019-02-06T08:55:11.103Z,5.50
2019-02-06T08:57:38.683Z,5.70
2019-02-06T09:00:07.817Z,5.70
2019-02-06T09:02:35.419Z,5.70
2019-02-06T09:05:03.624Z,5.70
2019-02-06T09:07:31.165Z,5.80
2019-02-06T09:09:58.727Z,5.90
2019-02-06T09:12:26.182Z,6.00
2019-02-06T09:14:53.758Z,6.00
2019-02-06T09:17:21.699Z,6.00
2019-02-06T09:19:49.253Z,6.00
2019-02-06T09:22:16.859Z,6.00
2019-02-06T09:24:44.502Z,6.10
2019-02-06T09:27:12.081Z,6.20
2019-02-06T09:29:41.315Z,6.30
2019-02-06T09:32:09.274Z,6.30
2019-02-06T09:34:36.722Z,6.40
2019-02-06T09:37:05.185Z,6.50
2019-02-06T09:39:33.964Z,6.60
2019-02-06T09:42:01.807Z,6.70
2019-02-06T09:44:29.268Z,6.70
2019-02-06T09:46:57.023Z,6.70
2019-02-06T09:49:24.467Z,6.70
2019-02-06T09:51:55.946Z,6.90
2019-02-06T09:54:23.417Z,6.90
2019-02-06T09:56:50.982Z,7.10
2019-02-06T09:59:19.037Z,7.20
2019-02-06T10:01:46.490Z,7.40
2019-02-06T10:04:14.906Z,7.40
2019-02-06T10:06:42.360Z,7.40
2019-02-06T10:09:09.806Z,7.50
2019-02-06T10:11:37.340Z,7.50
2019-02-06T10:14:07.319Z,7.60
2019-02-06T10:16:36.019Z,7.70
2019-02-06T10:19:04.049Z,7.80
2019-02-06T10:21:31.848Z,7.80
2019-02-06T10:23:59.444Z,7.80
2019-02-06T10:26:27.949Z,7.90
2019-02-06T10:28:56.068Z,7.80
2019-02-06T10:31:23.634Z,7.90
2019-02-06T10:33:51.598Z,8.00
2019-02-06T10:36:19.949Z,8.10
2019-02-06T10:38:47.502Z,8.10
2019-02-06T10:41:15.387Z,8.20
2019-02-06T10:43:43.830Z,8.10
2019-02-06T10:46:11.622Z,8.10
2019-02-06T10:48:39.079Z,8.10
2019-02-06T10:51:09.790Z,8.00
2019-02-06T10:53:37.324Z,8.00
2019-02-06T10:56:05.168Z,8.10
2019-02-06T10:58:33.155Z,8.20
2019-02-06T11:01:02.583Z,8.20
2019-02-06T11:03:30.115Z,8.20
2019-02-06T11:05:57.670Z,8.40
2019-02-06T11:08:26.721Z,8.40
2019-02-06T11:10:54.884Z,8.60
2019-02-06T11:13:22.714Z,8.70
2019-02-06T11:15:50.277Z,8.80
2019-02-06T11:18:19.760Z,9.00
2019-02-06T11:20:47.679Z,9.00
2019-02-06T11:23:17.096Z,9.00
2019-02-06T11:25:44.670Z,9.10
2019-02-06T11:28:12.994Z,9.30
2019-02-06T11:30:40.472Z,9.50
2019-02-06T11:33:08.172Z,9.40
2019-02-06T11:35:35.767Z,9.50
2019-02-06T11:38:05.392Z,9.50
2019-02-06T11:40:34.081Z,9.60
2019-02-06T11:43:01.640Z,9.70
2019-02-06T11:45:30.996Z,9.70
2019-02-06T11:47:59.002Z,9.70
2019-02-06T11:50:44.499Z,9.70
2019-02-06T11:53:17.571Z,9.70
2019-02-06T11:55:45.042Z,9.80
2019-02-06T11:58:12.416Z,9.70
2019-02-06T12:00:48.608Z,9.60
2019-02-06T12:03:16.725Z,9.70
2019-02-06T12:05:44.223Z,9.70
2019-02-06T12:08:12.578Z,9.70
2019-02-06T12:10:40.730Z,9.70
2019-02-06T12:13:08.735Z,9.70
2019-02-06T12:15:37.785Z,9.80
2019-02-06T12:18:07.171Z,9.80
2019-02-06T12:20:36.477Z,9.70
2019-02-06T12:23:04.108Z,9.60
2019-02-06T12:25:34.386Z,9.50
2019-02-06T12:28:00.937Z,9.60
2019-02-06T12:30:30.135Z,9.60
2019-02-06T12:32:57.898Z,9.60
2019-02-06T12:35:26.289Z,9.60
2019-02-06T12:37:54.227Z,9.60
2019-02-06T12:40:22.243Z,9.60
2019-02-06T12:42:49.798Z,9.60
2019-02-06T12:45:18.038Z,9.60
2019-02-06T12:47:47.319Z,9.60
2019-02-06T12:50:15.147Z,9.60
2019-02-06T12:52:42.723Z,9.60
2019-02-06T12:55:14.171Z,9.60
2019-02-06T12:57:41.606Z,9.60
2019-02-06T13:00:13.699Z,9.80
2019-02-06T13:02:43.750Z,9.90
2019-02-06T13:05:11.750Z,9.90
2019-02-06T13:07:39.184Z,9.90
2019-02-06T13:10:07.277Z,9.90
2019-02-06T13:12:34.752Z,9.90
2019-02-06T13:15:02.293Z,9.90
2019-02-06T13:17:29.864Z,10.00
2019-02-06T13:19:57.415Z,10.10
2019-02-06T13:22:25.271Z,10.10
2019-02-06T13:24:52.877Z,10.00
2019-02-06T13:27:21.399Z,10.00
2019-02-06T13:29:48.961Z,10.10
2019-02-06T13:32:16.465Z,10.10
2019-02-06T13:34:44.528Z,10.10
2019-02-06T13:37:12.295Z,10.10
2019-02-06T13:39:40.201Z,10.20
2019-02-06T13:42:07.678Z,10.10
2019-02-06T13:44:35.123Z,10.10
2019-02-06T13:47:02.724Z,10.20
2019-02-06T13:49:30.503Z,10.10
2019-02-06T13:51:57.939Z,10.00
2019-02-06T13:54:25.539Z,10.00
2019-02-06T13:56:53.156Z,10.10
2019-02-06T13:59:20.720Z,10.20
2019-02-06T14:01:48.152Z,10.20
2019-02-06T14:04:16.102Z,10.30
2019-02-06T14:06:43.585Z,10.20
2019-02-06T14:09:22.653Z,10.30
2019-02-06T14:11:47.038Z,10.40
2019-02-06T14:14:14.583Z,10.40
2019-02-06T14:16:43.041Z,10.40
2019-02-06T14:19:10.801Z,10.50
2019-02-06T14:21:38.376Z,10.40
2019-02-06T14:24:56.789Z,10.40
2019-02-06T14:27:54.851Z,10.40
2019-02-06T14:30:42.012Z,10.40
2019-02-06T14:33:49.022Z,10.30
2019-02-06T14:36:41.217Z,10.30
2019-02-06T14:39:15.474Z,10.10
2019-02-06T14:42:12.899Z,10.10
2019-02-06T14:45:31.269Z,9.90
2019-02-06T14:48:20.742Z,9.80
2019-02-06T14:51:16.290Z,9.80
2019-02-06T14:54:03.311Z,9.80
2019-02-06T14:56:57.061Z,9.70
2019-02-06T14:59:45.269Z,9.70
2019-02-06T15:02:50.505Z,9.80
2019-02-06T15:06:02.795Z,9.80
2019-02-06T15:08:48.375Z,9.80
2019-02-06T15:11:53.591Z,9.80
2019-02-06T15:14:57.711Z,9.80
2019-02-06T15:18:08.995Z,9.70
2019-02-06T15:20:50.460Z,9.70
2019-02-06T15:23:36.558Z,9.70
2019-02-06T15:27:10.683Z,9.70
2019-02-06T15:30:20.035Z,9.60
2019-02-06T15:33:38.619Z,9.50
2019-02-06T15:36:42.966Z,9.40
2019-02-06T15:39:39.257Z,9.10
2019-02-06T15:42:19.708Z,9.00
2019-02-06T15:45:28.469Z,9.00
2019-02-06T15:48:26.503Z,8.90
2019-02-06T15:51:19.601Z,8.80
2019-02-06T15:54:38.938Z,8.70
2019-02-06T15:57:57.777Z,8.70
2019-02-06T16:01:05.563Z,8.60
2019-02-06T16:04:29.239Z,8.50
2019-02-06T16:07:21.652Z,8.50
2019-02-06T16:10:13.583Z,8.50
2019-02-06T16:12:52.929Z,8.40
2019-02-06T16:15:52.462Z,8.40
2019-02-06T16:18:44.190Z,8.50
2019-02-06T16:21:31.121Z,8.40
2019-02-06T16:24:32.477Z,8.30
2019-02-06T16:27:38.167Z,8.30
2019-02-06T16:30:42.534Z,8.20
2019-02-06T16:33:42.942Z,8.20
2019-02-06T16:36:37.152Z,8.30
2019-02-06T16:39:53.238Z,8.20
2019-02-06T16:43:10.316Z,8.30
2019-02-06T16:46:18.535Z,8.30
2019-02-06T16:49:14.003Z,8.20
2019-02-06T16:52:11.464Z,8.20
2019-02-06T16:55:10.333Z,8.20
2019-02-06T16:58:17.143Z,8.20
2019-02-06T17:01:38.136Z,8.20
2019-02-06T17:04:30.958Z,8.20
2019-02-06T17:07:23.421Z,8.20
2019-02-06T17:10:55.906Z,8.20
2019-02-06T17:13:34.082Z,8.20
2019-02-06T17:16:40.346Z,8.20
2019-02-06T17:19:20.664Z,8.30
2019-02-06T17:22:44.522Z,8.30
2019-02-06T17:25:41.556Z,8.30
2019-02-06T17:28:59.062Z,8.30
2019-02-06T17:32:10.547Z,8.30
2019-02-06T17:35:01.127Z,8.30
2019-02-06T17:37:53.927Z,8.30
2019-02-06T17:40:43.109Z,8.30
2019-02-06T17:43:47.352Z,8.30
2019-02-06T17:46:58.766Z,8.30
2019-02-06T17:50:09.170Z,8.20
2019-02-06T17:53:29.192Z,8.20
2019-02-06T17:55:58.742Z,8.30
2019-02-06T17:58:35.283Z,8.20
2019-02-06T18:14:55.125Z,8.10
2019-02-06T18:17:22.982Z,8.00
2019-02-06T18:22:32.718Z,7.90
2019-02-06T18:25:00.591Z,7.90
2019-02-06T18:27:28.583Z,7.90
2019-02-06T18:29:56.909Z,7.90
2019-02-06T18:32:26.044Z,7.90
2019-02-06T18:34:54.072Z,7.80
2019-02-06T18:37:21.844Z,7.80
2019-02-06T18:39:51.216Z,7.80
2019-02-06T18:42:19.061Z,7.80
2019-02-06T18:44:47.926Z,7.90
2019-02-06T18:47:18.166Z,7.80
2019-02-06T18:49:49.184Z,7.80
2019-02-06T18:52:20.478Z,7.80
2019-02-06T18:54:48.567Z,7.80
2019-02-06T18:57:16.520Z,7.70
2019-02-06T18:59:44.424Z,7.70
2019-02-06T19:02:13.351Z,7.70
2019-02-06T19:04:41.158Z,7.70
2019-02-06T19:07:09.055Z,7.70
2019-02-06T19:09:37.315Z,7.70
2019-02-06T19:12:05.292Z,7.70
2019-02-06T19:14:33.059Z,7.60
2019-02-06T19:17:03.737Z,7.60
2019-02-06T19:19:32.761Z,7.60
2019-02-06T19:22:01.162Z,7.60
2019-02-06T19:24:29.034Z,7.50
2019-02-06T19:26:58.600Z,7.60
2019-02-06T19:29:26.557Z,7.50
2019-02-06T19:31:54.319Z,7.50
2019-02-06T19:34:22.095Z,7.50
2019-02-06T19:36:49.973Z,7.40
2019-02-06T19:39:17.753Z,7.40
2019-02-06T19:41:45.536Z,7.40
2019-02-06T19:44:13.265Z,7.40
2019-02-06T19:46:41.048Z,7.40
2019-02-06T19:49:09.106Z,7.40
2019-02-06T19:51:37.193Z,7.40
2019-02-06T19:54:04.963Z,7.40
2019-02-06T19:56:32.709Z,7.40
2019-02-06T19:59:00.724Z,7.30
2019-02-06T20:01:29.093Z,7.30
2019-02-06T20:03:57.240Z,7.20
2019-02-06T20:06:28.155Z,7.20
2019-02-06T20:09:04.420Z,7.20
2019-02-06T20:11:32.612Z,7.30
2019-02-06T20:14:01.642Z,7.30
2019-02-06T20:16:29.499Z,7.30
2019-02-06T20:18:57.292Z,7.30
2019-02-06T20:21:24.937Z,7.30
2019-02-06T20:23:52.623Z,7.20
2019-02-06T20:26:21.350Z,7.20
2019-02-06T20:28:49.118Z,7.20
2019-02-06T20:31:16.880Z,7.30
2019-02-06T20:33:44.554Z,7.20
2019-02-06T20:36:12.592Z,7.20
2019-02-06T20:38:40.290Z,7.20
2019-02-06T20:41:08.142Z,7.20
2019-02-06T20:43:35.855Z,7.20
2019-02-06T20:46:04.273Z,7.20
2019-02-06T20:48:32.247Z,7.20
2019-02-06T20:50:59.873Z,7.20
2019-02-06T20:53:27.938Z,7.10
2019-02-06T20:55:55.653Z,7.10
2019-02-06T20:58:23.426Z,7.10
2019-02-06T21:00:51.294Z,7.10
2019-02-06T21:03:18.960Z,7.10
2019-02-06T21:05:46.870Z,7.20
2019-02-06T21:08:14.604Z,7.20
2019-02-06T21:10:42.304Z,7.20
2019-02-06T21:13:10.299Z,7.20
2019-02-06T21:15:38.155Z,7.20
2019-02-06T21:18:05.857Z,7.20
2019-02-06T21:20:33.546Z,7.10
2019-02-06T21:23:01.875Z,7.20
2019-02-06T21:25:29.625Z,7.10
2019-02-06T21:27:57.693Z,7.10
2019-02-06T21:30:27.901Z,7.10
2019-02-06T21:32:55.651Z,7.00
2019-02-06T21:35:24.243Z,7.00
2019-02-06T21:37:52.033Z,7.10
2019-02-06T21:40:22.257Z,7.10
2019-02-06T21:42:50.514Z,7.10
2019-02-06T21:45:18.086Z,7.20
2019-02-06T21:47:46.241Z,7.20
2019-02-06T21:50:15.463Z,7.20
2019-02-06T21:55:24.589Z,7.30
2019-02-06T21:57:52.581Z,7.30
2019-02-06T22:00:25.490Z,7.30
2019-02-06T22:02:53.651Z,7.30
2019-02-06T22:05:21.404Z,7.30
2019-02-06T22:07:49.346Z,7.40
2019-02-06T22:10:17.539Z,7.40
2019-02-06T22:12:45.251Z,7.40
2019-02-06T22:15:15.765Z,7.50
2019-02-06T22:17:46.518Z,7.50
2019-02-06T22:20:14.698Z,7.40
2019-02-06T22:22:43.002Z,7.40
2019-02-06T22:25:11.037Z,7.40
2019-02-06T22:27:38.714Z,7.30
2019-02-06T22:30:10.209Z,7.30
2019-02-06T22:32:37.875Z,7.30
2019-02-06T22:35:06.071Z,7.30
2019-02-06T22:37:33.846Z,7.30
2019-02-06T22:40:01.608Z,7.30
2019-02-06T22:42:29.103Z,7.20
2019-02-06T22:44:56.700Z,7.20
2019-02-06T22:47:24.172Z,7.20
2019-02-06T22:49:51.848Z,7.20
2019-02-06T22:52:19.487Z,7.10
2019-02-06T22:54:47.458Z,7.10
2019-02-06T22:57:15.514Z,7.00
2019-02-06T22:59:43.071Z,7.00
2019-02-06T23:02:10.563Z,7.00
2019-02-06T23:04:38.150Z,7.00
2019-02-06T23:07:07.274Z,7.00
2019-02-06T23:09:34.974Z,7.00
2019-02-06T23:12:04.524Z,7.00
2019-02-06T23:14:32.160Z,6.90
2019-02-06T23:16:59.703Z,6.70
2019-02-06T23:19:27.268Z,6.70
2019-02-06T23:21:55.068Z,6.80
2019-02-06T23:24:24.519Z,6.80
2019-02-06T23:26:52.018Z,6.90
2019-02-06T23:29:20.132Z,6.90
2019-02-06T23:31:47.680Z,6.90
2019-02-06T23:34:15.260Z,7.00
2019-02-06T23:36:43.044Z,7.00
2019-02-06T23:39:16.196Z,7.00
2019-02-06T23:41:43.616Z,7.00
2019-02-06T23:44:11.596Z,7.10
2019-02-06T23:46:39.086Z,7.00
2019-02-06T23:49:06.779Z,7.00
2019-02-06T23:51:34.320Z,7.10
2019-02-06T23:54:02.050Z,7.10
2019-02-06T23:56:30.823Z,7.20
2019-02-06T23:58:58.678Z,7.20
